»·PEaware :: PRD69 KLAS-KSAN

PRD69 :: KLAS-KSAN

FLIGHT INFORMATION

Flight Status: Arrived
Operator: Unknown
More flights by this operator :: More flights under this callsign
Pilot: Ryan B. (8502)
Aircraft: BOEING 727-100
(B721)
More flights by this aircraft type
Origin: KLAS McCarran Intl
United States
Destination: KSAN San Diego Intl-Lindbergh
United States
More flights between these airports :: More routes between these airports
Route: BOACH8 LVELL LUCKI1
File this flight plan on PilotEdge
Remarks:
Altitude:
(Current/Filed)
26,000ft
Speed:
(Current/Filed)
400kts
Departed: 26-Jul-20 09:44 PM
Arrived: 26-Jul-20 10:25 PM
Distance/Time
Traveled:
224nm/0:41
Distance/Time
To Go:
Arrived

Flight Plot

Page will automatically refresh every two minutes.


Map Options




Map Legend


Flown Route
Filed Route
Departure Airport
Arrival Airport
Navaid (VOR, NDB)
Fix

Horizontal Profiles

Position Reports

Time Latitude Longitude Heading Altitude Ground
Speed
26-Jul-20 21:21 36.095273 -115.165357 90 2128ft 0kts
26-Jul-20 21:22 36.095273 -115.165357 90 2128ft 0kts
26-Jul-20 21:23 36.095273 -115.165357 90 2128ft 0kts
26-Jul-20 21:24 36.095273 -115.165357 90 2128ft 0kts
26-Jul-20 21:25 36.095273 -115.165357 90 2128ft 0kts
26-Jul-20 21:26 36.095273 -115.165357 90 2128ft 0kts
26-Jul-20 21:27 36.095273 -115.165357 90 2128ft 0kts
26-Jul-20 21:28 36.095273 -115.165357 90 2128ft 0kts
26-Jul-20 21:29 36.095273 -115.165357 90 2128ft 0kts
26-Jul-20 21:30 36.095273 -115.165357 90 2128ft 0kts
26-Jul-20 21:31 36.095273 -115.165357 90 2128ft 0kts
26-Jul-20 21:32 36.095273 -115.165357 90 2128ft 0kts
26-Jul-20 21:33 36.095273 -115.165357 90 2128ft 0kts
26-Jul-20 21:34 36.095273 -115.165357 90 2128ft 0kts
26-Jul-20 21:35 36.095273 -115.165356 90 2128ft 0kts
26-Jul-20 21:36 36.095273 -115.165356 90 2128ft 0kts
26-Jul-20 21:37 36.094734 -115.163546 165 2123ft 12kts
26-Jul-20 21:38 36.097391 -115.160035 25 2105ft 23kts
26-Jul-20 21:39 36.099774 -115.157926 72 2094ft 0kts
26-Jul-20 21:40 36.099774 -115.157926 72 2094ft 0kts
26-Jul-20 21:41 36.099800 -115.157083 103 2093ft 12kts
26-Jul-20 21:42 36.097971 -115.157389 205 2095ft 31kts
26-Jul-20 21:43 36.063311 -115.177128 206 3248ft 185kts
26-Jul-20 21:44 36.014919 -115.211924 230 5829ft 226kts
26-Jul-20 21:45 35.978037 -115.283150 227 7027ft 276kts
26-Jul-20 21:46 35.900344 -115.310418 184 10411ft 313kts
26-Jul-20 21:47 35.811803 -115.311321 173 13985ft 331kts
26-Jul-20 21:48 35.719101 -115.299147 174 17195ft 345kts
26-Jul-20 21:49 35.620734 -115.295929 182 19738ft 365kts
26-Jul-20 21:50 35.518432 -115.300434 181 22303ft 373kts
26-Jul-20 21:51 35.413885 -115.304937 181 24440ft 382kts
26-Jul-20 21:52 35.306096 -115.309323 182 25888ft 401kts
26-Jul-20 21:53 35.189658 -115.314091 182 25888ft 436kts
26-Jul-20 21:54 35.065134 -115.319012 182 25847ft 460kts
26-Jul-20 21:55 34.934717 -115.324136 181 25836ft 478kts
26-Jul-20 21:56 34.799768 -115.329911 184 25837ft 493kts
26-Jul-20 21:57 34.666702 -115.375485 201 25866ft 506kts
26-Jul-20 21:58 34.536382 -115.439591 199 26012ft 509kts
26-Jul-20 21:59 34.402574 -115.496828 198 25999ft 512kts
26-Jul-20 22:00 34.272281 -115.564316 209 26000ft 515kts
26-Jul-20 22:01 34.146938 -115.648098 201 25999ft 511kts
26-Jul-20 22:02 34.015011 -115.707538 199 25919ft 504kts
26-Jul-20 22:03 33.885055 -115.768287 200 25749ft 499kts
26-Jul-20 22:04 33.758847 -115.830562 200 25768ft 478kts
26-Jul-20 22:05 33.638635 -115.886922 199 25767ft 453kts
26-Jul-20 22:06 33.525456 -115.944905 214 24948ft 444kts
26-Jul-20 22:07 33.449125 -116.061252 233 23704ft 446kts
26-Jul-20 22:08 33.377500 -116.181719 232 22673ft 441kts
26-Jul-20 22:09 33.293694 -116.278482 206 22155ft 414kts
26-Jul-20 22:10 33.190194 -116.336731 203 20693ft 407kts
26-Jul-20 22:11 33.089487 -116.394194 204 18527ft 397kts
26-Jul-20 22:12 32.994160 -116.454532 213 16209ft 372kts
26-Jul-20 22:13 32.919137 -116.528021 220 13634ft 343kts
26-Jul-20 22:14 32.848488 -116.602762 220 10947ft 332kts
26-Jul-20 22:15 32.782851 -116.669668 222 9466ft 291kts
26-Jul-20 22:16 32.740691 -116.748448 239 7236ft 279kts
26-Jul-20 22:18 32.704137 -116.827277 247 5147ft 261kts
26-Jul-20 22:19 32.682627 -116.899008 250 4755ft 210kts
26-Jul-20 22:20 32.679461 -116.962564 282 3908ft 185kts
26-Jul-20 22:21 32.692747 -117.024394 287 2959ft 197kts
26-Jul-20 22:22 32.708859 -117.087059 286 2056ft 194kts
26-Jul-20 22:23 32.722733 -117.144872 286 650ft 156kts
26-Jul-20 22:24 32.734007 -117.191523 285 29ft 116kts
26-Jul-20 22:25 32.735502 -117.201854 111 29ft 0kts
26-Jul-20 22:26 32.734967 -117.199714 105 29ft 20kts
26-Jul-20 22:27 32.733164 -117.192061 82 29ft 16kts
26-Jul-20 22:28 32.734065 -117.187110 105 29ft 21kts
26-Jul-20 22:29 32.732545 -117.179976 48 29ft 14kts
26-Jul-20 22:30 32.734520 -117.179531 147 29ft 0kts
26-Jul-20 22:31 32.734520 -117.179531 146 29ft 0kts

Navigation Log

Ident Type
Flight plan parsing failed, navigation log unavailable